createdAt,value
2019-04-20T00:04:20.607Z,70.70
2019-04-20T00:06:56.469Z,70.70
2019-04-20T00:09:40.042Z,70.70
2019-04-20T00:12:37.387Z,71.00
2019-04-20T00:15:07.017Z,70.90
2019-04-20T00:17:55.042Z,70.90
2019-04-20T00:20:33.991Z,71.00
2019-04-20T00:23:40.431Z,71.10
2019-04-20T00:27:08.495Z,71.30
2019-04-20T00:29:35.550Z,71.40
2019-04-20T00:32:12.352Z,71.50
2019-04-20T00:34:46.867Z,71.70
2019-04-20T00:37:27.870Z,71.80
2019-04-20T00:40:09.856Z,72.00
2019-04-20T00:42:53.836Z,71.80
2019-04-20T00:45:35.246Z,71.90
2019-04-20T00:48:22.414Z,71.90
2019-04-20T00:51:17.326Z,71.80
2019-04-20T00:53:47.893Z,71.70
2019-04-20T00:56:24.507Z,71.70
2019-04-20T00:59:17.110Z,71.70
2019-04-20T01:02:03.718Z,71.80
2019-04-20T01:04:53.959Z,72.10
2019-04-20T01:10:29.259Z,72.00
2019-04-20T01:13:20.064Z,71.90
2019-04-20T01:16:06.265Z,72.00
2019-04-20T01:18:43.717Z,72.30
2019-04-20T01:21:25.368Z,72.00
2019-04-20T01:24:08.355Z,71.60
2019-04-20T01:26:53.702Z,71.90
2019-04-20T01:29:39.361Z,72.20
2019-04-20T01:32:23.346Z,72.10
2019-04-20T01:35:09.923Z,72.00
2019-04-20T01:37:57.613Z,71.90
2019-04-20T01:46:07.541Z,71.60
2019-04-20T01:48:43.416Z,71.40
2019-04-20T01:51:29.738Z,71.20
2019-04-20T01:54:29.745Z,70.80
2019-04-20T01:57:09.459Z,71.90
2019-04-20T01:59:54.312Z,71.10
2019-04-20T02:02:50.437Z,71.00
2019-04-20T02:05:32.388Z,71.00
2019-04-20T02:08:15.614Z,71.30
2019-04-20T02:10:57.631Z,71.40
2019-04-20T02:13:43.060Z,71.50
2019-04-20T02:16:27.307Z,71.40
2019-04-20T02:19:13.519Z,71.50
2019-04-20T02:21:59.152Z,71.40
2019-04-20T02:24:25.887Z,71.70
2019-04-20T02:27:06.487Z,71.60
2019-04-20T02:30:14.079Z,71.70
2019-04-20T02:33:21.639Z,71.50
2019-04-20T02:36:11.064Z,71.30
2019-04-20T02:39:21.922Z,71.90
2019-04-20T02:44:36.893Z,71.60
2019-04-20T02:49:50.944Z,71.20
2019-04-20T02:52:44.168Z,71.40
2019-04-20T02:55:15.230Z,71.30
2019-04-20T03:00:33.628Z,71.40
2019-04-20T03:03:03.520Z,71.10
2019-04-20T03:05:43.237Z,70.90
2019-04-20T03:11:44.243Z,70.90
2019-04-20T03:14:09.534Z,70.90
2019-04-20T03:16:56.776Z,71.00
2019-04-20T03:25:13.864Z,71.40
2019-04-20T03:31:25.076Z,71.30
2019-04-20T03:41:33.297Z,71.80
2019-04-20T04:06:41.905Z,71.80
2019-04-20T04:09:25.806Z,72.00
2019-04-20T04:12:09.107Z,72.20
2019-04-20T04:14:40.922Z,72.80
2019-04-20T04:17:28.780Z,73.20
2019-04-20T04:20:11.312Z,73.30
2019-04-20T04:23:03.692Z,73.20
2019-04-20T04:25:43.805Z,73.20
2019-04-20T04:28:29.886Z,73.80
2019-04-20T04:31:13.379Z,74.40
2019-04-20T04:33:58.210Z,75.40
2019-04-20T04:36:44.507Z,76.80
2019-04-20T04:39:25.186Z,77.70
2019-04-20T04:42:10.249Z,78.40
2019-04-20T04:44:39.997Z,79.90
2019-04-20T04:47:14.878Z,79.70
2019-04-20T04:50:04.840Z,79.80
2019-04-20T04:52:45.626Z,81.50
2019-04-20T04:55:30.861Z,82.00
2019-04-20T04:58:02.491Z,82.10
2019-04-20T05:00:44.484Z,81.00
2019-04-20T05:03:45.997Z,80.40
2019-04-20T05:06:41.373Z,80.30
2019-04-20T05:09:12.504Z,79.90
2019-04-20T05:12:00.811Z,79.50
2019-04-20T05:14:48.313Z,79.20
2019-04-20T05:17:41.024Z,78.60
2019-04-20T05:20:18.109Z,78.70
2019-04-20T05:26:14.070Z,78.90
2019-04-20T05:28:45.843Z,80.00
2019-04-20T05:31:18.689Z,78.90
2019-04-20T05:34:21.611Z,78.70
2019-04-20T05:37:13.652Z,79.00
2019-04-20T05:39:44.824Z,79.20
2019-04-20T05:42:33.447Z,79.50
2019-04-20T05:45:08.614Z,79.90
2019-04-20T05:47:48.237Z,79.70
2019-04-20T05:50:31.561Z,79.70
2019-04-20T05:53:19.909Z,79.10
2019-04-20T05:55:56.048Z,79.50
2019-04-20T06:01:42.485Z,80.30
2019-04-20T06:04:30.114Z,80.40
2019-04-20T06:07:11.075Z,80.60
2019-04-20T06:09:47.783Z,80.70
2019-04-20T06:12:31.510Z,80.10
2019-04-20T06:18:24.138Z,80.20
2019-04-20T06:21:19.937Z,79.70
2019-04-20T06:26:54.116Z,79.60
2019-04-20T06:29:23.535Z,79.80
2019-04-20T06:32:10.983Z,79.20
2019-04-20T06:34:49.005Z,79.20
2019-04-20T06:37:36.263Z,78.80
2019-04-20T06:40:36.500Z,78.60
2019-04-20T06:42:59.952Z,77.90
2019-04-20T06:45:51.136Z,77.80
2019-04-20T06:48:29.372Z,77.00
2019-04-20T06:51:17.472Z,76.70
2019-04-20T06:56:49.961Z,75.80
2019-04-20T06:59:39.285Z,75.30
2019-04-20T07:02:25.376Z,76.30
2019-04-20T07:07:47.529Z,74.00
2019-04-20T07:10:35.916Z,73.70
2019-04-20T07:15:52.199Z,72.20
2019-04-20T07:24:33.409Z,71.40
2019-04-20T07:35:26.010Z,69.30
2019-04-20T07:40:51.983Z,68.40
2019-04-20T07:57:32.103Z,65.70
2019-04-20T08:00:14.625Z,67.10
2019-04-20T08:08:43.924Z,64.00
2019-04-20T08:11:21.401Z,64.00
2019-04-20T08:14:22.669Z,62.70
2019-04-20T08:17:09.688Z,61.90
2019-04-20T08:19:36.645Z,64.60
2019-04-20T08:22:19.771Z,65.90
2019-04-20T08:24:59.302Z,63.90
2019-04-20T08:27:29.804Z,66.40
2019-04-20T08:30:33.988Z,62.30
2019-04-20T08:33:17.792Z,65.70
2019-04-20T08:36:07.439Z,61.60
2019-04-20T08:41:28.650Z,64.60
2019-04-20T08:44:38.106Z,64.20
2019-04-20T08:47:06.175Z,63.50
2019-04-20T08:49:41.332Z,62.40
2019-04-20T08:52:44.642Z,62.00
2019-04-20T08:55:04.912Z,60.60
2019-04-20T08:57:27.068Z,61.70
2019-04-20T09:00:09.162Z,59.40
2019-04-20T09:02:57.859Z,61.60
2019-04-20T09:05:45.551Z,59.20
2019-04-20T09:08:23.564Z,64.10
2019-04-20T09:11:18.192Z,60.70
2019-04-20T09:13:46.453Z,60.40
2019-04-20T09:16:31.747Z,59.80
2019-04-20T09:19:12.322Z,60.80
2019-04-20T09:21:57.515Z,57.20
2019-04-20T09:24:57.654Z,57.00
2019-04-20T09:27:25.347Z,60.50
2019-04-20T09:30:09.028Z,57.80
2019-04-20T09:33:04.569Z,59.70
2019-04-20T09:35:49.557Z,58.60
2019-04-20T09:38:27.160Z,56.50
2019-04-20T09:41:18.513Z,55.30
2019-04-20T09:43:43.147Z,58.90
2019-04-20T09:46:24.424Z,57.10
2019-04-20T09:49:15.664Z,53.80
2019-04-20T09:52:05.252Z,55.60
2019-04-20T09:54:45.539Z,56.20
2019-04-20T09:57:29.546Z,55.20
2019-04-20T10:00:12.112Z,57.00
2019-04-20T10:08:09.998Z,54.60
2019-04-20T10:10:52.934Z,55.80
2019-04-20T10:13:34.333Z,54.80
2019-04-20T10:16:15.759Z,55.50
2019-04-20T10:18:56.943Z,54.20
2019-04-20T10:21:38.211Z,55.70
2019-04-20T10:24:18.977Z,54.30
2019-04-20T10:27:00.724Z,54.50
2019-04-20T10:29:41.726Z,53.30
2019-04-20T10:32:31.055Z,52.10
2019-04-20T10:35:06.480Z,53.20
2019-04-20T10:37:51.586Z,51.90
2019-04-20T10:40:44.814Z,52.30
2019-04-20T10:43:16.203Z,52.80
2019-04-20T10:45:57.618Z,52.60
2019-04-20T10:48:45.259Z,52.60
2019-04-20T10:51:21.795Z,54.10
2019-04-20T10:54:02.686Z,49.40
2019-04-20T10:56:43.512Z,49.60
2019-04-20T10:59:25.689Z,51.60
2019-04-20T11:02:07.801Z,49.20
2019-04-20T11:04:50.518Z,44.50
2019-04-20T11:07:32.452Z,41.90
2019-04-20T11:13:03.298Z,43.90
2019-04-20T11:18:35.498Z,42.00
2019-04-20T11:24:00.421Z,48.30
2019-04-20T11:32:20.218Z,45.40
2019-04-20T12:14:12.652Z,39.90
2019-04-20T12:22:26.214Z,36.90
2019-04-20T12:25:07.936Z,40.50
2019-04-20T12:27:52.652Z,41.30
2019-04-20T12:30:30.902Z,39.60
2019-04-20T12:33:11.738Z,38.40
2019-04-20T12:35:52.438Z,36.30
2019-04-20T12:38:32.997Z,38.60
2019-04-20T12:41:14.600Z,38.60
2019-04-20T12:43:57.234Z,36.90
2019-04-20T12:46:38.210Z,34.10
2019-04-20T12:49:19.859Z,37.10
2019-04-20T12:52:05.107Z,36.20
2019-04-20T12:54:45.125Z,37.10
2019-04-20T12:57:26.813Z,35.70
2019-04-20T13:00:08.188Z,34.30
2019-04-20T13:02:49.486Z,36.30
2019-04-20T13:05:30.031Z,34.50
2019-04-20T13:08:13.821Z,34.50
2019-04-20T13:11:00.397Z,33.10
2019-04-20T13:13:48.265Z,34.10
2019-04-20T13:16:34.405Z,35.00
2019-04-20T13:19:15.112Z,34.10
2019-04-20T13:21:56.792Z,34.70
2019-04-20T13:24:39.002Z,36.00
2019-04-20T13:27:20.867Z,32.30
2019-04-20T13:30:03.227Z,33.80
2019-04-20T13:32:43.663Z,32.50
2019-04-20T13:35:24.131Z,32.50
2019-04-20T13:38:04.831Z,35.20
2019-04-20T13:40:45.953Z,33.80
2019-04-20T13:43:27.853Z,32.30
2019-04-20T13:46:09.148Z,34.30
2019-04-20T13:48:53.207Z,31.80
2019-04-20T13:51:34.858Z,33.10
2019-04-20T13:54:19.499Z,33.20
2019-04-20T13:56:58.516Z,30.90
2019-04-20T13:59:44.303Z,32.20
2019-04-20T14:02:31.002Z,32.70
2019-04-20T14:05:12.879Z,32.70
2019-04-20T14:07:53.546Z,31.50
2019-04-20T14:10:35.179Z,30.60
2019-04-20T14:13:18.686Z,31.80
2019-04-20T14:15:58.900Z,30.90
2019-04-20T14:21:36.518Z,28.70
2019-04-20T14:24:17.554Z,29.60
2019-04-20T14:26:59.001Z,30.00
2019-04-20T14:29:41.174Z,29.60
2019-04-20T14:32:22.887Z,29.50
2019-04-20T14:35:05.003Z,29.80
2019-04-20T14:37:45.969Z,29.40
2019-04-20T14:40:28.236Z,29.60
2019-04-20T14:43:09.151Z,30.00
2019-04-20T14:45:50.528Z,29.20
2019-04-20T14:51:14.034Z,30.30
2019-04-20T14:53:55.667Z,28.70
2019-04-20T14:56:37.772Z,29.80
2019-04-20T14:59:23.273Z,30.10
2019-04-20T15:02:08.440Z,31.20
2019-04-20T15:04:50.346Z,31.50
2019-04-20T15:10:18.615Z,28.10
2019-04-20T15:13:02.847Z,28.00
2019-04-20T15:15:46.419Z,28.60
2019-04-20T15:18:31.654Z,29.40
2019-04-20T15:21:15.524Z,29.70
2019-04-20T15:23:57.485Z,30.50
2019-04-20T15:26:38.616Z,29.70
2019-04-20T15:32:02.117Z,30.20
2019-04-20T15:37:33.034Z,28.10
2019-04-20T15:43:06.724Z,29.80
2019-04-20T15:56:56.940Z,30.70
2019-04-20T16:13:38.080Z,31.00
2019-04-20T16:16:16.175Z,29.90
2019-04-20T16:18:57.331Z,30.30
2019-04-20T16:21:37.733Z,30.10
2019-04-20T16:24:19.971Z,30.40
2019-04-20T16:29:57.740Z,31.30
2019-04-20T16:32:39.030Z,34.60
2019-04-20T16:35:20.349Z,31.60
2019-04-20T16:38:02.554Z,31.90
2019-04-20T16:40:44.376Z,34.10
2019-04-20T16:43:30.491Z,33.80
2019-04-20T16:46:08.969Z,32.00
2019-04-20T16:48:50.247Z,34.10
2019-04-20T16:51:31.210Z,34.50
2019-04-20T16:54:11.982Z,36.00
2019-04-20T16:56:53.177Z,36.20
2019-04-20T16:59:42.367Z,36.80
2019-04-20T17:02:17.824Z,37.00
2019-04-20T17:04:59.374Z,37.60
2019-04-20T17:07:42.817Z,37.70
2019-04-20T17:10:24.086Z,38.00
2019-04-20T17:13:06.373Z,38.10
2019-04-20T17:15:47.893Z,38.30
2019-04-20T17:18:29.460Z,39.00
2019-04-20T17:21:16.621Z,39.10
2019-04-20T17:23:53.333Z,38.90
2019-04-20T17:32:45.463Z,39.00
2019-04-20T17:35:37.926Z,40.00
2019-04-20T17:38:09.146Z,40.60
2019-04-20T17:41:02.932Z,39.90
2019-04-20T17:43:50.700Z,39.80
2019-04-20T17:46:28.618Z,40.90
2019-04-20T17:49:15.827Z,41.10
2019-04-20T17:52:06.713Z,41.80
2019-04-20T17:54:43.261Z,41.10
2019-04-20T17:57:23.623Z,41.50
2019-04-20T18:03:15.821Z,42.90
2019-04-20T18:06:06.156Z,42.50
2019-04-20T18:11:14.998Z,45.90
2019-04-20T18:13:58.921Z,46.40
2019-04-20T18:16:59.480Z,47.10
2019-04-20T18:22:27.926Z,46.90
2019-04-20T18:25:30.066Z,46.80
2019-04-20T18:28:04.473Z,47.10
2019-04-20T18:36:37.887Z,48.50
2019-04-20T18:39:16.534Z,48.90
2019-04-20T18:42:03.123Z,49.10
2019-04-20T18:45:00.953Z,49.40
2019-04-20T18:47:39.179Z,50.20
2019-04-20T18:50:15.020Z,49.80
2019-04-20T18:52:47.992Z,49.80
2019-04-20T18:55:39.060Z,50.80
2019-04-20T18:58:13.234Z,51.00
2019-04-20T19:00:55.494Z,51.50
2019-04-20T19:03:41.929Z,52.60
2019-04-20T19:06:21.038Z,52.80
2019-04-20T19:09:02.919Z,52.40
2019-04-20T19:11:50.844Z,52.40
2019-04-20T19:14:48.847Z,52.40
2019-04-20T19:17:59.253Z,52.90
2019-04-20T19:20:33.044Z,53.00
2019-04-20T19:23:14.759Z,53.00
2019-04-20T19:26:02.420Z,53.20
2019-04-20T19:28:44.493Z,53.10
2019-04-20T19:31:39.018Z,53.90
2019-04-20T19:34:18.812Z,54.60
2019-04-20T19:36:59.048Z,54.90
2019-04-20T19:39:45.566Z,54.70
2019-04-20T19:42:27.631Z,55.30
2019-04-20T19:47:51.717Z,57.50
2019-04-20T19:53:26.662Z,58.80
2019-04-20T20:26:41.703Z,55.40
2019-04-20T20:29:27.444Z,55.40
2019-04-20T20:32:11.923Z,55.30
2019-04-20T20:37:39.681Z,55.40
2019-04-20T20:40:25.619Z,55.30
2019-04-20T20:43:11.108Z,55.30
2019-04-20T20:45:56.804Z,55.00
2019-04-20T20:48:38.537Z,55.20
2019-04-20T20:51:23.306Z,55.20
2019-04-20T20:53:56.522Z,55.30
2019-04-20T20:56:36.734Z,55.60
2019-04-20T20:59:29.149Z,55.90
2019-04-20T21:02:06.834Z,56.20
2019-04-20T21:04:39.468Z,56.40
2019-04-20T21:07:20.609Z,56.80
2019-04-20T21:10:01.860Z,57.00
2019-04-20T21:12:52.048Z,57.30
2019-04-20T21:15:27.946Z,57.50
2019-04-20T21:18:33.560Z,57.50
2019-04-20T21:21:10.266Z,57.80
2019-04-20T21:23:45.774Z,57.50
2019-04-20T21:26:23.594Z,57.70
2019-04-20T21:28:57.782Z,57.80
2019-04-20T21:31:44.307Z,58.30
2019-04-20T21:34:22.285Z,58.10
2019-04-20T21:37:11.671Z,58.30
2019-04-20T21:39:53.369Z,58.20
2019-04-20T21:42:34.512Z,58.30
2019-04-20T21:45:19.823Z,58.40
2019-04-20T21:47:52.651Z,58.60
2019-04-20T21:50:58.250Z,58.60
2019-04-20T21:53:33.368Z,58.60
2019-04-20T21:56:19.822Z,58.70
2019-04-20T21:59:16.639Z,58.90
2019-04-20T22:02:09.868Z,58.70
2019-04-20T22:04:49.276Z,58.90
2019-04-20T22:07:38.665Z,59.10
2019-04-20T22:10:32.453Z,59.10
2019-04-20T22:13:25.492Z,59.00
2019-04-20T22:16:05.193Z,59.00
2019-04-20T22:18:52.958Z,59.20
2019-04-20T22:21:35.478Z,59.20
2019-04-20T22:24:21.625Z,59.20
2019-04-20T22:27:00.114Z,59.10
2019-04-20T22:29:34.002Z,59.20
2019-04-20T22:32:17.261Z,59.50
2019-04-20T22:35:03.048Z,59.50
2019-04-20T22:37:47.776Z,59.30
2019-04-20T22:40:33.061Z,59.60
2019-04-20T22:43:12.599Z,59.60
2019-04-20T22:48:50.936Z,59.60
2019-04-20T22:51:40.000Z,59.90
2019-04-20T22:54:21.764Z,59.70
2019-04-20T22:57:02.273Z,59.90
2019-04-20T22:59:44.696Z,59.70
2019-04-20T23:02:16.524Z,59.90
2019-04-20T23:05:00.579Z,59.70
2019-04-20T23:07:41.896Z,60.00
2019-04-20T23:10:27.814Z,59.90
2019-04-20T23:13:05.487Z,60.00
2019-04-20T23:15:50.724Z,60.30
2019-04-20T23:18:28.776Z,60.50
2019-04-20T23:21:13.663Z,60.40
2019-04-20T23:23:55.337Z,60.60
2019-04-20T23:26:38.676Z,60.70
2019-04-20T23:29:22.056Z,60.50
2019-04-20T23:32:04.917Z,60.30
2019-04-20T23:34:44.773Z,60.50
2019-04-20T23:37:31.230Z,60.70
2019-04-20T23:40:11.292Z,60.90
2019-04-20T23:42:51.815Z,60.90
2019-04-20T23:49:18.677Z,61.30
2019-04-20T23:52:11.928Z,61.30
2019-04-20T23:54:38.757Z,61.20
